sensor_id;sensor_type;location;lat;lon;timestamp;temperature;humidity
24049;DHT22;12250;50.956;4.746;2023-08-01T00:00:48;17.50;99.90
24049;DHT22;12250;50.956;4.746;2023-08-01T00:03:13;17.40;99.90
24049;DHT22;12250;50.956;4.746;2023-08-01T00:05:40;17.40;99.90
24049;DHT22;12250;50.956;4.746;2023-08-01T00:08:14;17.30;99.90
24049;DHT22;12250;50.956;4.746;2023-08-01T00:10:42;17.30;99.90
24049;DHT22;12250;50.956;4.746;2023-08-01T00:13:08;17.10;99.90
24049;DHT22;12250;50.956;4.746;2023-08-01T00:15:35;17.10;99.90
24049;DHT22;12250;50.956;4.746;2023-08-01T00:18:01;17.10;99.90
24049;DHT22;12250;50.956;4.746;2023-08-01T00:20:26;17.00;99.90
24049;DHT22;12250;50.956;4.746;2023-08-01T00:22:52;17.00;99.90
24049;DHT22;12250;50.956;4.746;2023-08-01T00:25:18;16.90;99.90
24049;DHT22;12250;50.956;4.746;2023-08-01T00:27:44;16.90;99.90
24049;DHT22;12250;50.956;4.746;2023-08-01T00:30:10;16.90;99.90
24049;DHT22;12250;50.956;4.746;2023-08-01T00:32:36;16.90;99.90
24049;DHT22;12250;50.956;4.746;2023-08-01T00:35:02;16.90;99.90
24049;DHT22;12250;50.956;4.746;2023-08-01T00:37:28;16.90;99.90
24049;DHT22;12250;50.956;4.746;2023-08-01T00:39:54;16.90;99.90
24049;DHT22;12250;50.956;4.746;2023-08-01T00:42:19;16.90;99.90
24049;DHT22;12250;50.956;4.746;2023-08-01T00:44:45;16.90;99.90
24049;DHT22;12250;50.956;4.746;2023-08-01T00:47:13;16.90;99.90
24049;DHT22;12250;50.956;4.746;2023-08-01T00:49:39;16.90;99.90
24049;DHT22;12250;50.956;4.746;2023-08-01T00:52:05;16.80;99.90
24049;DHT22;12250;50.956;4.746;2023-08-01T00:54:32;16.80;99.90
24049;DHT22;12250;50.956;4.746;2023-08-01T00:57:02;16.70;99.90
24049;DHT22;12250;50.956;4.746;2023-08-01T00:59:29;16.70;99.90
24049;DHT22;12250;50.956;4.746;2023-08-01T01:01:55;16.60;99.90
24049;DHT22;12250;50.956;4.746;2023-08-01T01:04:20;16.60;99.90
24049;DHT22;12250;50.956;4.746;2023-08-01T01:06:59;16.60;99.90
24049;DHT22;12250;50.956;4.746;2023-08-01T01:09:28;16.50;99.90
24049;DHT22;12250;50.956;4.746;2023-08-01T01:11:55;16.50;99.90
24049;DHT22;12250;50.956;4.746;2023-08-01T01:14:20;16.50;99.90
24049;DHT22;12250;50.956;4.746;2023-08-01T01:16:46;16.40;99.90
24049;DHT22;12250;50.956;4.746;2023-08-01T01:19:11;16.40;99.90
24049;DHT22;12250;50.956;4.746;2023-08-01T01:21:39;16.40;99.90
24049;DHT22;12250;50.956;4.746;2023-08-01T01:24:07;16.40;99.90
24049;DHT22;12250;50.956;4.746;2023-08-01T01:26:34;16.30;99.90
24049;DHT22;12250;50.956;4.746;2023-08-01T01:29:01;16.30;99.90
24049;DHT22;12250;50.956;4.746;2023-08-01T01:31:27;16.30;99.90
24049;DHT22;12250;50.956;4.746;2023-08-01T01:33:54;16.40;99.90
24049;DHT22;12250;50.956;4.746;2023-08-01T01:36:20;16.40;99.90
24049;DHT22;12250;50.956;4.746;2023-08-01T01:38:46;16.30;99.90
24049;DHT22;12250;50.956;4.746;2023-08-01T01:41:11;16.20;99.90
24049;DHT22;12250;50.956;4.746;2023-08-01T01:43:37;16.30;99.90
24049;DHT22;12250;50.956;4.746;2023-08-01T01:46:06;16.30;99.90
24049;DHT22;12250;50.956;4.746;2023-08-01T01:48:32;16.30;99.90
24049;DHT22;12250;50.956;4.746;2023-08-01T01:50:58;16.30;99.90
24049;DHT22;12250;50.956;4.746;2023-08-01T01:53:24;16.40;99.90
24049;DHT22;12250;50.956;4.746;2023-08-01T01:55:50;16.40;99.90
24049;DHT22;12250;50.956;4.746;2023-08-01T01:58:16;16.40;99.90
24049;DHT22;12250;50.956;4.746;2023-08-01T02:00:41;16.40;99.90
24049;DHT22;12250;50.956;4.746;2023-08-01T02:03:07;16.50;99.90
24049;DHT22;12250;50.956;4.746;2023-08-01T02:05:36;16.50;99.90
24049;DHT22;12250;50.956;4.746;2023-08-01T02:08:02;16.50;99.90
24049;DHT22;12250;50.956;4.746;2023-08-01T02:10:30;16.50;99.90
24049;DHT22;12250;50.956;4.746;2023-08-01T02:12:56;16.50;99.90
24049;DHT22;12250;50.956;4.746;2023-08-01T02:15:21;16.50;99.90
24049;DHT22;12250;50.956;4.746;2023-08-01T02:17:47;16.40;99.90
24049;DHT22;12250;50.956;4.746;2023-08-01T02:20:13;16.50;99.90
24049;DHT22;12250;50.956;4.746;2023-08-01T02:22:38;16.40;99.90
24049;DHT22;12250;50.956;4.746;2023-08-01T02:25:04;16.50;99.90
24049;DHT22;12250;50.956;4.746;2023-08-01T02:27:30;16.50;99.90
24049;DHT22;12250;50.956;4.746;2023-08-01T02:29:56;16.50;99.90
24049;DHT22;12250;50.956;4.746;2023-08-01T02:32:21;16.40;99.90
24049;DHT22;12250;50.956;4.746;2023-08-01T02:34:47;16.40;99.90
24049;DHT22;12250;50.956;4.746;2023-08-01T02:37:13;16.40;99.90
24049;DHT22;12250;50.956;4.746;2023-08-01T02:39:39;16.40;99.90
24049;DHT22;12250;50.956;4.746;2023-08-01T02:42:04;16.50;99.90
24049;DHT22;12250;50.956;4.746;2023-08-01T02:44:30;16.50;99.90
24049;DHT22;12250;50.956;4.746;2023-08-01T02:46:56;16.50;99.90
24049;DHT22;12250;50.956;4.746;2023-08-01T02:49:21;16.40;99.90
24049;DHT22;12250;50.956;4.746;2023-08-01T02:51:48;16.40;99.90
24049;DHT22;12250;50.956;4.746;2023-08-01T02:54:14;16.40;99.90
24049;DHT22;12250;50.956;4.746;2023-08-01T02:56:39;16.40;99.90
24049;DHT22;12250;50.956;4.746;2023-08-01T02:59:09;16.50;99.90
24049;DHT22;12250;50.956;4.746;2023-08-01T03:01:36;16.40;99.90
24049;DHT22;12250;50.956;4.746;2023-08-01T03:04:05;16.40;99.90
24049;DHT22;12250;50.956;4.746;2023-08-01T03:06:32;16.40;99.90
24049;DHT22;12250;50.956;4.746;2023-08-01T03:08:58;16.40;99.90
24049;DHT22;12250;50.956;4.746;2023-08-01T03:11:24;16.40;99.90
24049;DHT22;12250;50.956;4.746;2023-08-01T03:13:51;16.40;99.90
24049;DHT22;12250;50.956;4.746;2023-08-01T03:16:17;16.40;99.90
24049;DHT22;12250;50.956;4.746;2023-08-01T03:18:43;16.50;99.90
24049;DHT22;12250;50.956;4.746;2023-08-01T03:21:09;16.50;99.90
24049;DHT22;12250;50.956;4.746;2023-08-01T03:23:35;16.50;99.90
24049;DHT22;12250;50.956;4.746;2023-08-01T03:26:00;16.50;99.90
24049;DHT22;12250;50.956;4.746;2023-08-01T03:28:26;16.50;99.90
24049;DHT22;12250;50.956;4.746;2023-08-01T03:30:52;16.50;99.90
24049;DHT22;12250;50.956;4.746;2023-08-01T03:33:19;16.60;99.90
24049;DHT22;12250;50.956;4.746;2023-08-01T03:35:45;16.50;99.90
24049;DHT22;12250;50.956;4.746;2023-08-01T03:38:11;16.40;99.90
24049;DHT22;12250;50.956;4.746;2023-08-01T03:40:37;16.40;99.90
24049;DHT22;12250;50.956;4.746;2023-08-01T03:43:02;16.40;99.90
24049;DHT22;12250;50.956;4.746;2023-08-01T03:45:28;16.30;99.90
24049;DHT22;12250;50.956;4.746;2023-08-01T03:47:54;16.30;99.90
24049;DHT22;12250;50.956;4.746;2023-08-01T03:50:20;16.40;99.90
24049;DHT22;12250;50.956;4.746;2023-08-01T03:52:46;16.30;99.90
24049;DHT22;12250;50.956;4.746;2023-08-01T03:55:12;16.40;99.90
24049;DHT22;12250;50.956;4.746;2023-08-01T03:57:37;16.40;99.90
24049;DHT22;12250;50.956;4.746;2023-08-01T04:00:06;16.40;99.90
24049;DHT22;12250;50.956;4.746;2023-08-01T04:02:40;16.40;99.90
24049;DHT22;12250;50.956;4.746;2023-08-01T04:05:07;16.40;99.90
24049;DHT22;12250;50.956;4.746;2023-08-01T04:07:34;16.30;99.90
24049;DHT22;12250;50.956;4.746;2023-08-01T04:10:00;16.30;99.90
24049;DHT22;12250;50.956;4.746;2023-08-01T04:12:26;16.20;99.90
24049;DHT22;12250;50.956;4.746;2023-08-01T04:14:51;16.20;99.90
24049;DHT22;12250;50.956;4.746;2023-08-01T04:17:17;16.10;99.90
24049;DHT22;12250;50.956;4.746;2023-08-01T04:19:43;16.20;99.90
24049;DHT22;12250;50.956;4.746;2023-08-01T04:22:08;16.20;99.90
24049;DHT22;12250;50.956;4.746;2023-08-01T04:24:34;16.20;99.90
24049;DHT22;12250;50.956;4.746;2023-08-01T04:27:00;16.20;99.90
24049;DHT22;12250;50.956;4.746;2023-08-01T04:29:25;16.30;99.90
24049;DHT22;12250;50.956;4.746;2023-08-01T04:31:51;16.40;99.90
24049;DHT22;12250;50.956;4.746;2023-08-01T04:34:17;16.40;99.90
24049;DHT22;12250;50.956;4.746;2023-08-01T04:36:42;16.40;99.90
24049;DHT22;12250;50.956;4.746;2023-08-01T04:39:08;16.40;99.90
24049;DHT22;12250;50.956;4.746;2023-08-01T04:41:34;16.40;99.90
24049;DHT22;12250;50.956;4.746;2023-08-01T04:43:59;16.30;99.90
24049;DHT22;12250;50.956;4.746;2023-08-01T04:46:25;16.30;99.90
24049;DHT22;12250;50.956;4.746;2023-08-01T04:48:51;16.20;99.90
24049;DHT22;12250;50.956;4.746;2023-08-01T04:51:16;16.30;99.90
24049;DHT22;12250;50.956;4.746;2023-08-01T04:53:42;16.40;99.90
24049;DHT22;12250;50.956;4.746;2023-08-01T04:56:08;16.40;99.90
24049;DHT22;12250;50.956;4.746;2023-08-01T04:58:33;16.40;99.90
24049;DHT22;12250;50.956;4.746;2023-08-01T05:00:59;16.50;99.90
24049;DHT22;12250;50.956;4.746;2023-08-01T05:03:24;16.60;99.90
24049;DHT22;12250;50.956;4.746;2023-08-01T05:05:50;16.50;99.90
24049;DHT22;12250;50.956;4.746;2023-08-01T05:08:16;16.60;99.90
24049;DHT22;12250;50.956;4.746;2023-08-01T05:10:41;16.60;99.90
24049;DHT22;12250;50.956;4.746;2023-08-01T05:13:07;16.70;99.90
24049;DHT22;12250;50.956;4.746;2023-08-01T05:15:33;16.70;99.90
24049;DHT22;12250;50.956;4.746;2023-08-01T05:17:58;16.70;99.90
24049;DHT22;12250;50.956;4.746;2023-08-01T05:20:24;16.70;99.90
24049;DHT22;12250;50.956;4.746;2023-08-01T05:22:58;16.80;99.90
24049;DHT22;12250;50.956;4.746;2023-08-01T05:25:24;17.00;99.90
24049;DHT22;12250;50.956;4.746;2023-08-01T05:27:50;17.00;99.90
24049;DHT22;12250;50.956;4.746;2023-08-01T05:30:16;17.00;99.90
24049;DHT22;12250;50.956;4.746;2023-08-01T05:32:41;17.00;99.90
24049;DHT22;12250;50.956;4.746;2023-08-01T05:35:09;17.10;99.90
24049;DHT22;12250;50.956;4.746;2023-08-01T05:37:35;17.10;99.90
24049;DHT22;12250;50.956;4.746;2023-08-01T05:40:02;17.10;99.90
24049;DHT22;12250;50.956;4.746;2023-08-01T05:42:28;17.00;99.90
24049;DHT22;12250;50.956;4.746;2023-08-01T05:44:54;16.90;99.90
24049;DHT22;12250;50.956;4.746;2023-08-01T05:47:19;16.90;99.90
24049;DHT22;12250;50.956;4.746;2023-08-01T05:49:45;17.00;99.90
24049;DHT22;12250;50.956;4.746;2023-08-01T05:52:11;17.20;99.90
24049;DHT22;12250;50.956;4.746;2023-08-01T05:54:36;17.40;99.90
24049;DHT22;12250;50.956;4.746;2023-08-01T05:57:02;17.50;99.90
24049;DHT22;12250;50.956;4.746;2023-08-01T05:59:28;17.60;99.90
24049;DHT22;12250;50.956;4.746;2023-08-01T06:01:54;17.60;99.90
24049;DHT22;12250;50.956;4.746;2023-08-01T06:04:19;17.60;99.90
24049;DHT22;12250;50.956;4.746;2023-08-01T06:06:45;17.70;99.90
24049;DHT22;12250;50.956;4.746;2023-08-01T06:09:11;17.80;99.90
24049;DHT22;12250;50.956;4.746;2023-08-01T06:11:36;17.80;99.90
24049;DHT22;12250;50.956;4.746;2023-08-01T06:14:02;17.90;99.90
24049;DHT22;12250;50.956;4.746;2023-08-01T06:16:28;17.90;99.90
24049;DHT22;12250;50.956;4.746;2023-08-01T06:18:53;18.00;99.90
24049;DHT22;12250;50.956;4.746;2023-08-01T06:21:19;18.10;99.90
24049;DHT22;12250;50.956;4.746;2023-08-01T06:23:45;18.10;99.90
24049;DHT22;12250;50.956;4.746;2023-08-01T06:26:10;18.10;99.90
24049;DHT22;12250;50.956;4.746;2023-08-01T06:28:36;18.10;99.90
24049;DHT22;12250;50.956;4.746;2023-08-01T06:31:01;18.20;99.90
24049;DHT22;12250;50.956;4.746;2023-08-01T06:33:28;18.30;99.90
24049;DHT22;12250;50.956;4.746;2023-08-01T06:35:54;18.30;99.90
24049;DHT22;12250;50.956;4.746;2023-08-01T06:38:19;18.40;99.90
24049;DHT22;12250;50.956;4.746;2023-08-01T06:40:45;18.40;99.90
24049;DHT22;12250;50.956;4.746;2023-08-01T06:43:11;18.70;99.90
24049;DHT22;12250;50.956;4.746;2023-08-01T06:45:36;18.80;99.90
24049;DHT22;12250;50.956;4.746;2023-08-01T06:48:03;18.70;99.90
24049;DHT22;12250;50.956;4.746;2023-08-01T06:50:28;18.60;99.90
24049;DHT22;12250;50.956;4.746;2023-08-01T06:52:54;18.70;99.90
24049;DHT22;12250;50.956;4.746;2023-08-01T06:55:20;19.00;99.90
24049;DHT22;12250;50.956;4.746;2023-08-01T06:57:46;19.00;99.90
24049;DHT22;12250;50.956;4.746;2023-08-01T07:00:12;19.10;99.90
24049;DHT22;12250;50.956;4.746;2023-08-01T07:02:37;19.10;99.90
24049;DHT22;12250;50.956;4.746;2023-08-01T07:05:03;19.10;99.90
24049;DHT22;12250;50.956;4.746;2023-08-01T07:07:30;19.00;99.90
24049;DHT22;12250;50.956;4.746;2023-08-01T07:09:56;18.90;99.90
24049;DHT22;12250;50.956;4.746;2023-08-01T07:12:22;19.00;99.90
24049;DHT22;12250;50.956;4.746;2023-08-01T07:14:48;19.10;99.90
24049;DHT22;12250;50.956;4.746;2023-08-01T07:17:14;19.10;99.90
24049;DHT22;12250;50.956;4.746;2023-08-01T07:19:39;19.30;99.90
24049;DHT22;12250;50.956;4.746;2023-08-01T07:22:05;19.40;99.90
24049;DHT22;12250;50.956;4.746;2023-08-01T07:24:31;19.60;99.90
24049;DHT22;12250;50.956;4.746;2023-08-01T07:26:56;19.80;99.90
24049;DHT22;12250;50.956;4.746;2023-08-01T07:29:22;20.10;99.90
24049;DHT22;12250;50.956;4.746;2023-08-01T07:31:48;20.10;99.90
24049;DHT22;12250;50.956;4.746;2023-08-01T07:34:13;20.00;99.90
24049;DHT22;12250;50.956;4.746;2023-08-01T07:36:39;20.00;99.90
24049;DHT22;12250;50.956;4.746;2023-08-01T07:39:05;20.10;99.90
24049;DHT22;12250;50.956;4.746;2023-08-01T07:41:30;20.00;99.90
24049;DHT22;12250;50.956;4.746;2023-08-01T07:43:56;20.10;99.90
24049;DHT22;12250;50.956;4.746;2023-08-01T07:46:21;20.10;99.90
24049;DHT22;12250;50.956;4.746;2023-08-01T07:48:47;20.50;99.90
24049;DHT22;12250;50.956;4.746;2023-08-01T07:51:14;20.50;99.90
24049;DHT22;12250;50.956;4.746;2023-08-01T07:53:40;20.60;99.90
24049;DHT22;12250;50.956;4.746;2023-08-01T07:56:05;20.50;99.90
24049;DHT22;12250;50.956;4.746;2023-08-01T07:58:34;20.40;99.90
24049;DHT22;12250;50.956;4.746;2023-08-01T08:01:06;20.40;99.90
24049;DHT22;12250;50.956;4.746;2023-08-01T08:03:32;20.50;99.90
24049;DHT22;12250;50.956;4.746;2023-08-01T08:05:58;20.70;99.90
24049;DHT22;12250;50.956;4.746;2023-08-01T08:08:24;21.20;99.90
24049;DHT22;12250;50.956;4.746;2023-08-01T08:10:50;21.70;99.90
24049;DHT22;12250;50.956;4.746;2023-08-01T08:13:15;22.00;99.90
24049;DHT22;12250;50.956;4.746;2023-08-01T08:15:41;21.80;99.90
24049;DHT22;12250;50.956;4.746;2023-08-01T08:18:07;21.60;99.90
24049;DHT22;12250;50.956;4.746;2023-08-01T08:20:44;21.40;99.90
24049;DHT22;12250;50.956;4.746;2023-08-01T08:23:11;21.40;99.90
24049;DHT22;12250;50.956;4.746;2023-08-01T08:25:40;21.30;99.90
24049;DHT22;12250;50.956;4.746;2023-08-01T08:28:05;21.60;99.90
24049;DHT22;12250;50.956;4.746;2023-08-01T08:30:31;22.10;99.90
24049;DHT22;12250;50.956;4.746;2023-08-01T08:33:00;23.10;99.90
24049;DHT22;12250;50.956;4.746;2023-08-01T08:35:30;24.00;99.90
24049;DHT22;12250;50.956;4.746;2023-08-01T08:37:58;24.30;99.90
24049;DHT22;12250;50.956;4.746;2023-08-01T08:40:24;25.80;99.90
24049;DHT22;12250;50.956;4.746;2023-08-01T08:42:52;27.90;96.50
24049;DHT22;12250;50.956;4.746;2023-08-01T08:45:19;26.70;96.50
24049;DHT22;12250;50.956;4.746;2023-08-01T08:47:55;26.00;97.30
24049;DHT22;12250;50.956;4.746;2023-08-01T08:50:22;25.70;98.40
24049;DHT22;12250;50.956;4.746;2023-08-01T08:52:48;25.40;98.60
24049;DHT22;12250;50.956;4.746;2023-08-01T08:55:14;25.10;98.00
24049;DHT22;12250;50.956;4.746;2023-08-01T08:57:41;24.40;99.20
24049;DHT22;12250;50.956;4.746;2023-08-01T09:00:07;23.70;99.90
24049;DHT22;12250;50.956;4.746;2023-08-01T09:02:33;23.20;99.90
24049;DHT22;12250;50.956;4.746;2023-08-01T09:04:59;23.40;99.90
24049;DHT22;12250;50.956;4.746;2023-08-01T09:07:29;24.80;99.40
24049;DHT22;12250;50.956;4.746;2023-08-01T09:09:55;27.20;96.60
24049;DHT22;12250;50.956;4.746;2023-08-01T09:12:21;29.90;92.10
24049;DHT22;12250;50.956;4.746;2023-08-01T09:14:50;31.60;85.90
24049;DHT22;12250;50.956;4.746;2023-08-01T09:17:16;31.80;83.30
24049;DHT22;12250;50.956;4.746;2023-08-01T09:19:44;32.40;76.00
24049;DHT22;12250;50.956;4.746;2023-08-01T09:22:14;33.90;72.10
24049;DHT22;12250;50.956;4.746;2023-08-01T09:24:50;32.20;67.90
24049;DHT22;12250;50.956;4.746;2023-08-01T09:27:16;30.60;72.50
24049;DHT22;12250;50.956;4.746;2023-08-01T09:29:42;31.00;71.20
24049;DHT22;12250;50.956;4.746;2023-08-01T09:32:14;31.90;71.50
24049;DHT22;12250;50.956;4.746;2023-08-01T09:34:41;33.10;66.20
24049;DHT22;12250;50.956;4.746;2023-08-01T09:37:07;33.00;64.60
24049;DHT22;12250;50.956;4.746;2023-08-01T09:39:33;33.10;65.10
24049;DHT22;12250;50.956;4.746;2023-08-01T09:42:00;35.10;64.70
24049;DHT22;12250;50.956;4.746;2023-08-01T09:44:27;36.60;54.90
24049;DHT22;12250;50.956;4.746;2023-08-01T09:47:01;34.30;56.20
24049;DHT22;12250;50.956;4.746;2023-08-01T09:49:28;31.80;63.30
24049;DHT22;12250;50.956;4.746;2023-08-01T09:51:54;30.10;68.20
24049;DHT22;12250;50.956;4.746;2023-08-01T09:54:21;30.80;69.80
24049;DHT22;12250;50.956;4.746;2023-08-01T09:56:49;32.90;69.70
24049;DHT22;12250;50.956;4.746;2023-08-01T09:59:20;35.70;59.30
24049;DHT22;12250;50.956;4.746;2023-08-01T10:01:51;36.20;55.30
24049;DHT22;12250;50.956;4.746;2023-08-01T10:04:37;35.50;52.90
24049;DHT22;12250;50.956;4.746;2023-08-01T10:07:11;34.80;55.00
24049;DHT22;12250;50.956;4.746;2023-08-01T10:09:37;35.60;54.10
24049;DHT22;12250;50.956;4.746;2023-08-01T10:12:05;36.80;52.00
24049;DHT22;12250;50.956;4.746;2023-08-01T10:14:35;36.70;53.40
24049;DHT22;12250;50.956;4.746;2023-08-01T10:17:02;34.80;53.00
24049;DHT22;12250;50.956;4.746;2023-08-01T10:19:32;34.10;56.60
24049;DHT22;12250;50.956;4.746;2023-08-01T10:22:01;35.40;54.60
24049;DHT22;12250;50.956;4.746;2023-08-01T10:24:28;36.20;52.30
24049;DHT22;12250;50.956;4.746;2023-08-01T10:26:55;35.50;51.20
24049;DHT22;12250;50.956;4.746;2023-08-01T10:29:20;34.00;52.10
24049;DHT22;12250;50.956;4.746;2023-08-01T10:31:54;33.40;54.10
24049;DHT22;12250;50.956;4.746;2023-08-01T10:34:20;32.80;55.20
24049;DHT22;12250;50.956;4.746;2023-08-01T10:36:56;31.80;58.80
24049;DHT22;12250;50.956;4.746;2023-08-01T10:39:22;31.20;57.80
24049;DHT22;12250;50.956;4.746;2023-08-01T10:42:00;30.30;58.30
24049;DHT22;12250;50.956;4.746;2023-08-01T10:44:27;29.10;61.10
24049;DHT22;12250;50.956;4.746;2023-08-01T10:49:20;28.30;66.60
24049;DHT22;12250;50.956;4.746;2023-08-01T10:51:47;28.00;65.60
24049;DHT22;12250;50.956;4.746;2023-08-01T10:54:23;27.60;69.20
24049;DHT22;12250;50.956;4.746;2023-08-01T10:56:51;27.80;68.20
24049;DHT22;12250;50.956;4.746;2023-08-01T10:59:17;27.80;65.30
24049;DHT22;12250;50.956;4.746;2023-08-01T11:01:51;27.70;67.70
24049;DHT22;12250;50.956;4.746;2023-08-01T11:04:21;27.50;69.10
24049;DHT22;12250;50.956;4.746;2023-08-01T11:06:52;27.30;70.30
24049;DHT22;12250;50.956;4.746;2023-08-01T11:09:24;27.20;70.10
24049;DHT22;12250;50.956;4.746;2023-08-01T11:11:54;27.60;69.60
24049;DHT22;12250;50.956;4.746;2023-08-01T11:14:28;28.40;67.00
24049;DHT22;12250;50.956;4.746;2023-08-01T11:16:55;28.00;69.20
24049;DHT22;12250;50.956;4.746;2023-08-01T11:19:24;28.30;70.60
24049;DHT22;12250;50.956;4.746;2023-08-01T11:21:50;28.00;67.80
24049;DHT22;12250;50.956;4.746;2023-08-01T11:24:18;29.00;65.60
24049;DHT22;12250;50.956;4.746;2023-08-01T11:26:46;28.70;65.70
24049;DHT22;12250;50.956;4.746;2023-08-01T11:29:13;28.00;67.50
24049;DHT22;12250;50.956;4.746;2023-08-01T11:31:39;27.30;69.90
24049;DHT22;12250;50.956;4.746;2023-08-01T11:34:07;26.40;72.20
24049;DHT22;12250;50.956;4.746;2023-08-01T11:36:36;25.30;76.00
24049;DHT22;12250;50.956;4.746;2023-08-01T11:39:04;24.00;84.30
24049;DHT22;12250;50.956;4.746;2023-08-01T11:41:30;23.00;87.50
24049;DHT22;12250;50.956;4.746;2023-08-01T11:44:01;22.40;90.60
24049;DHT22;12250;50.956;4.746;2023-08-01T11:46:32;21.80;91.70
24049;DHT22;12250;50.956;4.746;2023-08-01T11:48:58;21.60;92.70
24049;DHT22;12250;50.956;4.746;2023-08-01T11:51:25;21.40;93.50
24049;DHT22;12250;50.956;4.746;2023-08-01T11:54:04;21.70;93.60
24049;DHT22;12250;50.956;4.746;2023-08-01T11:56:30;22.20;92.90
24049;DHT22;12250;50.956;4.746;2023-08-01T11:58:56;22.90;91.40
24049;DHT22;12250;50.956;4.746;2023-08-01T12:01:22;23.30;89.70
24049;DHT22;12250;50.956;4.746;2023-08-01T12:03:50;23.70;89.50
24049;DHT22;12250;50.956;4.746;2023-08-01T12:06:17;24.20;86.10
24049;DHT22;12250;50.956;4.746;2023-08-01T12:08:45;24.90;83.90
24049;DHT22;12250;50.956;4.746;2023-08-01T12:11:37;25.50;84.10
24049;DHT22;12250;50.956;4.746;2023-08-01T12:16:36;25.60;80.80
24049;DHT22;12250;50.956;4.746;2023-08-01T12:19:02;25.50;78.70
24049;DHT22;12250;50.956;4.746;2023-08-01T12:21:29;25.70;79.30
24049;DHT22;12250;50.956;4.746;2023-08-01T12:23:55;25.60;78.10
24049;DHT22;12250;50.956;4.746;2023-08-01T12:26:22;25.20;79.50
24049;DHT22;12250;50.956;4.746;2023-08-01T12:28:48;24.80;80.70
24049;DHT22;12250;50.956;4.746;2023-08-01T12:31:20;24.70;83.30
24049;DHT22;12250;50.956;4.746;2023-08-01T12:33:47;24.40;82.30
24049;DHT22;12250;50.956;4.746;2023-08-01T12:36:13;24.20;85.10
24049;DHT22;12250;50.956;4.746;2023-08-01T12:38:39;24.20;86.30
24049;DHT22;12250;50.956;4.746;2023-08-01T12:41:06;24.50;85.50
24049;DHT22;12250;50.956;4.746;2023-08-01T12:43:32;25.00;83.00
24049;DHT22;12250;50.956;4.746;2023-08-01T12:45:58;25.60;81.60
24049;DHT22;12250;50.956;4.746;2023-08-01T12:48:24;26.10;78.90
24049;DHT22;12250;50.956;4.746;2023-08-01T12:50:50;26.00;76.00
24049;DHT22;12250;50.956;4.746;2023-08-01T12:53:16;25.20;76.80
24049;DHT22;12250;50.956;4.746;2023-08-01T12:55:46;24.80;79.10
24049;DHT22;12250;50.956;4.746;2023-08-01T12:58:12;24.60;79.70
24049;DHT22;12250;50.956;4.746;2023-08-01T13:00:39;24.60;80.60
24049;DHT22;12250;50.956;4.746;2023-08-01T13:03:05;24.50;80.00
24049;DHT22;12250;50.956;4.746;2023-08-01T13:05:34;24.40;79.90
24049;DHT22;12250;50.956;4.746;2023-08-01T13:08:00;24.20;79.60
24049;DHT22;12250;50.956;4.746;2023-08-01T13:10:29;24.10;80.20
24049;DHT22;12250;50.956;4.746;2023-08-01T13:12:54;23.90;80.50
24049;DHT22;12250;50.956;4.746;2023-08-01T13:15:20;23.90;80.80
24049;DHT22;12250;50.956;4.746;2023-08-01T13:17:46;23.70;80.60
24049;DHT22;12250;50.956;4.746;2023-08-01T13:20:11;23.90;82.50
24049;DHT22;12250;50.956;4.746;2023-08-01T13:22:37;24.10;81.00
24049;DHT22;12250;50.956;4.746;2023-08-01T13:25:03;24.10;80.40
24049;DHT22;12250;50.956;4.746;2023-08-01T13:27:29;24.10;79.70
24049;DHT22;12250;50.956;4.746;2023-08-01T13:29:55;24.20;80.40
24049;DHT22;12250;50.956;4.746;2023-08-01T13:32:20;24.40;83.50
24049;DHT22;12250;50.956;4.746;2023-08-01T13:34:46;24.80;81.90
24049;DHT22;12250;50.956;4.746;2023-08-01T13:37:13;24.70;80.40
24049;DHT22;12250;50.956;4.746;2023-08-01T13:39:38;24.60;80.90
24049;DHT22;12250;50.956;4.746;2023-08-01T13:42:05;24.80;79.20
24049;DHT22;12250;50.956;4.746;2023-08-01T13:44:30;24.60;78.60
24049;DHT22;12250;50.956;4.746;2023-08-01T13:46:56;24.30;80.00
24049;DHT22;12250;50.956;4.746;2023-08-01T13:49:22;24.20;83.70
24049;DHT22;12250;50.956;4.746;2023-08-01T13:51:47;24.20;83.70
24049;DHT22;12250;50.956;4.746;2023-08-01T13:54:13;24.40;80.40
24049;DHT22;12250;50.956;4.746;2023-08-01T13:56:39;24.30;80.80
24049;DHT22;12250;50.956;4.746;2023-08-01T13:59:05;23.90;82.30
24049;DHT22;12250;50.956;4.746;2023-08-01T14:01:30;23.70;83.30
24049;DHT22;12250;50.956;4.746;2023-08-01T14:03:56;23.50;84.30
24049;DHT22;12250;50.956;4.746;2023-08-01T14:06:21;23.40;84.50
24049;DHT22;12250;50.956;4.746;2023-08-01T14:08:47;23.10;85.40
24049;DHT22;12250;50.956;4.746;2023-08-01T14:11:13;22.90;86.40
24049;DHT22;12250;50.956;4.746;2023-08-01T14:13:38;22.70;87.30
24049;DHT22;12250;50.956;4.746;2023-08-01T14:16:04;22.20;88.80
24049;DHT22;12250;50.956;4.746;2023-08-01T14:18:30;21.90;90.10
24049;DHT22;12250;50.956;4.746;2023-08-01T14:20:55;21.30;92.60
24049;DHT22;12250;50.956;4.746;2023-08-01T14:23:22;20.80;94.50
24049;DHT22;12250;50.956;4.746;2023-08-01T14:25:48;20.40;95.80
24049;DHT22;12250;50.956;4.746;2023-08-01T14:28:14;20.20;96.80
24049;DHT22;12250;50.956;4.746;2023-08-01T14:30:40;20.10;98.10
24049;DHT22;12250;50.956;4.746;2023-08-01T14:33:07;20.30;98.40
24049;DHT22;12250;50.956;4.746;2023-08-01T14:35:36;20.60;98.20
24049;DHT22;12250;50.956;4.746;2023-08-01T14:38:03;20.80;97.80
24049;DHT22;12250;50.956;4.746;2023-08-01T14:40:29;20.90;97.10
24049;DHT22;12250;50.956;4.746;2023-08-01T14:42:56;20.90;97.50
24049;DHT22;12250;50.956;4.746;2023-08-01T14:45:22;20.90;97.20
24049;DHT22;12250;50.956;4.746;2023-08-01T14:47:48;20.80;96.60
24049;DHT22;12250;50.956;4.746;2023-08-01T14:50:14;20.70;97.20
24049;DHT22;12250;50.956;4.746;2023-08-01T14:52:40;20.50;97.90
24049;DHT22;12250;50.956;4.746;2023-08-01T14:55:07;20.10;99.30
24049;DHT22;12250;50.956;4.746;2023-08-01T14:57:33;19.80;99.90
24049;DHT22;12250;50.956;4.746;2023-08-01T14:59:59;19.60;99.90
24049;DHT22;12250;50.956;4.746;2023-08-01T15:02:26;19.40;99.90
24049;DHT22;12250;50.956;4.746;2023-08-01T15:04:53;19.50;99.90
24049;DHT22;12250;50.956;4.746;2023-08-01T15:07:20;19.60;99.90
24049;DHT22;12250;50.956;4.746;2023-08-01T15:09:48;19.60;99.90
24049;DHT22;12250;50.956;4.746;2023-08-01T15:12:16;19.80;99.90
24049;DHT22;12250;50.956;4.746;2023-08-01T15:14:41;20.00;99.90
24049;DHT22;12250;50.956;4.746;2023-08-01T15:17:07;20.20;99.90
24049;DHT22;12250;50.956;4.746;2023-08-01T15:19:34;20.40;99.90
24049;DHT22;12250;50.956;4.746;2023-08-01T15:22:01;20.70;99.90
24049;DHT22;12250;50.956;4.746;2023-08-01T15:24:26;21.00;99.90
24049;DHT22;12250;50.956;4.746;2023-08-01T15:26:52;21.20;99.90
24049;DHT22;12250;50.956;4.746;2023-08-01T15:29:18;21.20;99.90
24049;DHT22;12250;50.956;4.746;2023-08-01T15:31:43;21.10;99.90